Time;durP1;ratioP1;P1;durP2;ratioP2;P2;SDS_P1;SDS_P2;PMS_P1;PMS_P2;Temp;Humidity;BMP_temperature;BMP_pressure;BME280_temperature;BME280_humidity;BME280_pressure;Samples;Min_cycle;Max_cycle;Signal;HPM_P1;HPM_P2
2022/12/29 00:02:29;;;;;;;10.30;6.25;;;;;;;;;;10318734;28;20075;-59
2022/12/29 00:07:27;;;;;;;8.98;5.47;;;;;;;;;;10319436;28;20068;-60
2022/12/29 00:15:36;;;;;;;10.63;5.88;;;;;;;;;;10318943;28;20075;-59
2022/12/29 00:17:45;;;;;;;13.05;6.18;;;;;;;;;;10319021;28;20052;-60
2022/12/29 00:44:06;;;;;;;9.40;5.57;;;;;;;;;;10231522;28;20068;-59
2022/12/29 00:54:22;;;;;;;9.10;6.25;;;;;;;;;;10315999;28;20075;-59
2022/12/29 00:59:20;;;;;;;9.30;5.88;;;;;;;;;;10317444;28;20479;-59
2022/12/29 01:04:20;;;;;;;6.25;5.63;;;;;;;;;;10316778;28;20040;-59
2022/12/29 01:14:35;;;;;;;9.32;6.18;;;;;;;;;;10288982;28;20433;-59
2022/12/29 01:19:35;;;;;;;7.53;5.70;;;;;;;;;;10316371;28;20095;-59
2022/12/29 01:24:33;;;;;;;8.23;5.85;;;;;;;;;;10315776;28;20047;-59
2022/12/29 01:29:31;;;;;;;6.88;6.25;;;;;;;;;;10315486;28;20072;-59
2022/12/29 01:34:29;;;;;;;9.30;6.25;;;;;;;;;;10316262;28;20049;-59
2022/12/29 01:39:29;;;;;;;16.00;6.43;;;;;;;;;;10316656;28;20803;-59
2022/12/29 01:44:47;;;;;;;7.13;6.32;;;;;;;;;;10316533;28;20079;-59
2022/12/29 01:49:45;;;;;;;9.85;6.50;;;;;;;;;;10315512;28;20095;-60
2022/12/29 01:54:48;;;;;;;9.20;7.03;;;;;;;;;;10315252;28;20072;-59
2022/12/29 01:59:51;;;;;;;12.25;6.55;;;;;;;;;;10314873;28;20076;-59
2022/12/29 02:04:49;;;;;;;11.02;7.32;;;;;;;;;;10315111;28;20048;-60
2022/12/29 02:09:50;;;;;;;10.75;6.65;;;;;;;;;;10315117;28;20079;-60
2022/12/29 02:14:51;;;;;;;9.50;6.55;;;;;;;;;;10294873;28;20051;-59
2022/12/29 02:20:13;;;;;;;50.10;33.90;;;;;;;;;;10302900;28;20044;-59
2022/12/29 02:25:27;;;;;;;34.67;27.00;;;;;;;;;;10290999;28;20051;-60
2022/12/29 02:30:40;;;;;;;8.43;6.38;;;;;;;;;;10292153;28;20044;-59
2022/12/29 02:35:45;;;;;;;9.00;6.88;;;;;;;;;;10319387;28;20083;-60
2022/12/29 02:40:43;;;;;;;;;;;;;;;;;;10296879;28;20414;-60
2022/12/29 02:45:44;;;;;;;9.20;6.68;;;;;;;;;;10337032;28;19921;-60
2022/12/29 02:50:47;;;;;;;9.70;6.95;;;;;;;;;;10321025;28;20083;-59
2022/12/29 02:55:48;;;;;;;7.55;6.75;;;;;;;;;;10321176;28;20044;-59
2022/12/29 03:00:56;;;;;;;11.98;6.68;;;;;;;;;;10299973;28;20052;-58
2022/12/29 03:06:00;;;;;;;7.18;6.25;;;;;;;;;;10321371;28;20494;-59
2022/12/29 03:11:01;;;;;;;8.20;6.85;;;;;;;;;;10291431;28;20052;-59
2022/12/29 03:16:04;;;;;;;13.80;10.38;;;;;;;;;;10336512;28;20056;-59
2022/12/29 03:21:06;;;;;;;9.68;6.90;;;;;;;;;;10282236;28;20052;-58
2022/12/29 03:26:06;;;;;;;8.32;6.45;;;;;;;;;;10292823;28;20059;-60
2022/12/29 03:31:05;;;;;;;7.45;6.65;;;;;;;;;;10294229;28;20047;-58
2022/12/29 03:36:08;;;;;;;7.38;6.63;;;;;;;;;;10288050;28;20504;-58
2022/12/29 03:41:08;;;;;;;8.13;6.72;;;;;;;;;;10286784;28;20047;-59
2022/12/29 03:46:07;;;;;;;9.55;6.32;;;;;;;;;;10290808;28;20049;-60
2022/12/29 03:51:07;;;;;;;8.68;6.25;;;;;;;;;;10285495;28;20491;-59
2022/12/29 03:56:06;;;;;;;8.55;6.65;;;;;;;;;;10288776;28;20059;-59
2022/12/29 04:01:05;;;;;;;7.53;6.30;;;;;;;;;;10301193;28;20041;-59
2022/12/29 04:06:08;;;;;;;11.40;7.70;;;;;;;;;;10300372;28;20056;-58
2022/12/29 04:11:27;;;;;;;8.20;6.35;;;;;;;;;;10318380;28;20087;-59
2022/12/29 04:16:31;;;;;;;8.87;6.97;;;;;;;;;;10296239;28;20434;-59
2022/12/29 04:21:30;;;;;;;6.88;5.68;;;;;;;;;;10299129;28;20465;-58
2022/12/29 04:26:29;;;;;;;10.85;6.13;;;;;;;;;;10295216;28;20051;-59
2022/12/29 04:31:50;;;;;;;7.60;6.43;;;;;;;;;;10316947;28;20079;-59
2022/12/29 04:36:51;;;;;;;8.00;6.57;;;;;;;;;;10298421;28;20040;-59
2022/12/29 04:41:49;;;;;;;18.05;10.05;;;;;;;;;;10286140;28;20044;-59
2022/12/29 04:46:50;;;;;;;10.52;8.32;;;;;;;;;;10274673;28;20136;-59
2022/12/29 04:52:16;;;;;;;48.72;33.88;;;;;;;;;;10313042;28;20083;-59
2022/12/29 04:57:16;;;;;;;33.00;19.73;;;;;;;;;;10298106;28;20052;-60
2022/12/29 05:02:20;;;;;;;8.65;6.05;;;;;;;;;;10298702;28;20509;-60
2022/12/29 05:07:22;;;;;;;10.10;6.43;;;;;;;;;;10298161;28;20490;-60
2022/12/29 05:12:21;;;;;;;9.20;7.53;;;;;;;;;;10297626;28;20048;-60
2022/12/29 05:17:28;;;;;;;14.65;10.85;;;;;;;;;;10286047;28;20056;-61
2022/12/29 05:22:28;;;;;;;13.32;10.00;;;;;;;;;;10286328;28;20512;-60
2022/12/29 05:27:27;;;;;;;12.90;10.15;;;;;;;;;;10286797;28;20059;-59
2022/12/29 05:32:33;;;;;;;12.57;10.65;;;;;;;;;;10315741;28;20083;-59
2022/12/29 05:37:32;;;;;;;8.70;7.90;;;;;;;;;;10289753;28;20060;-58
2022/12/29 05:42:31;;;;;;;9.35;7.18;;;;;;;;;;10300405;28;20041;-59
2022/12/29 05:47:46;;;;;;;12.98;9.80;;;;;;;;;;10293324;28;20052;-60
2022/12/29 05:53:11;;;;;;;10.32;8.13;;;;;;;;;;10282204;28;20091;-60
2022/12/29 05:58:10;;;;;;;16.20;12.77;;;;;;;;;;10315831;28;20542;-59
2022/12/29 06:03:08;;;;;;;12.40;8.70;;;;;;;;;;10308482;28;20048;-60
2022/12/29 06:08:07;;;;;;;16.63;8.52;;;;;;;;;;10273844;28;20049;-59
2022/12/29 06:13:06;;;;;;;9.35;8.05;;;;;;;;;;10288219;28;20049;-60
2022/12/29 06:18:11;;;;;;;12.30;7.72;;;;;;;;;;10315088;28;20032;-59
2022/12/29 06:23:18;;;;;;;9.50;7.03;;;;;;;;;;10296991;28;20047;-59
2022/12/29 06:28:18;;;;;;;14.27;9.35;;;;;;;;;;10293454;28;20048;-59
2022/12/29 06:33:16;;;;;;;10.35;7.30;;;;;;;;;;10296327;28;20089;-59
2022/12/29 06:38:14;;;;;;;11.27;8.23;;;;;;;;;;10314464;28;20064;-60
2022/12/29 06:43:13;;;;;;;22.60;17.70;;;;;;;;;;10315050;28;20040;-60
2022/12/29 06:48:31;;;;;;;11.32;8.50;;;;;;;;;;10316974;28;20045;-60
2022/12/29 06:53:29;;;;;;;13.15;8.82;;;;;;;;;;10312183;28;20072;-59
2022/12/29 06:58:27;;;;;;;12.10;10.38;;;;;;;;;;10313914;28;20465;-60
2022/12/29 07:03:25;;;;;;;14.10;11.35;;;;;;;;;;10317351;28;20064;-59
2022/12/29 07:08:25;;;;;;;38.35;21.77;;;;;;;;;;10315841;28;20080;-59
2022/12/29 07:13:23;;;;;;;31.42;19.38;;;;;;;;;;10320255;28;20076;-59
2022/12/29 07:18:24;;;;;;;15.88;12.15;;;;;;;;;;10320975;28;20045;-59
2022/12/29 07:23:22;;;;;;;14.70;10.80;;;;;;;;;;10313885;28;20067;-60
2022/12/29 07:28:22;;;;;;;15.02;10.70;;;;;;;;;;10315209;28;20083;-60
2022/12/29 07:33:20;;;;;;;36.83;21.75;;;;;;;;;;10297488;28;20087;-59
2022/12/29 07:38:19;;;;;;;27.60;17.67;;;;;;;;;;10315742;28;20764;-58
2022/12/29 08:30:16;;;;;;;14.13;11.18;;;;;;;;;;10313670;28;20071;-59
2022/12/29 08:35:14;;;;;;;21.38;16.98;;;;;;;;;;10313735;28;20075;-60
2022/12/29 08:40:13;;;;;;;21.00;15.20;;;;;;;;;;10315967;28;20072;-60
2022/12/29 08:45:11;;;;;;;22.05;17.15;;;;;;;;;;10315621;28;20072;-60
2022/12/29 08:50:11;;;;;;;15.57;13.52;;;;;;;;;;10315522;28;20467;-61
2022/12/29 08:55:09;;;;;;;12.70;11.18;;;;;;;;;;10312896;28;20055;-61
2022/12/29 09:00:08;;;;;;;28.15;14.10;;;;;;;;;;10297200;28;20056;-63
2022/12/29 09:05:07;;;;;;;17.38;12.07;;;;;;;;;;10296996;28;20044;-61
2022/12/29 09:10:07;;;;;;;17.48;11.48;;;;;;;;;;10307420;28;20536;-60
2022/12/29 09:15:06;;;;;;;17.33;12.75;;;;;;;;;;10308318;28;20080;-61
2022/12/29 09:20:05;;;;;;;17.95;11.70;;;;;;;;;;10315506;28;20047;-60
2022/12/29 09:25:03;;;;;;;15.00;11.07;;;;;;;;;;10314468;28;20075;-62
2022/12/29 09:30:03;;;;;;;25.90;17.52;;;;;;;;;;10316242;28;20067;-61
2022/12/29 09:35:02;;;;;;;27.55;18.90;;;;;;;;;;10313985;28;20076;-61
2022/12/29 09:40:00;;;;;;;23.65;17.98;;;;;;;;;;10311880;28;20059;-59
2022/12/29 09:45:05;;;;;;;27.50;23.38;;;;;;;;;;10315051;28;20079;-61
2022/12/29 09:50:06;;;;;;;59.63;23.73;;;;;;;;;;10314749;28;20048;-62
2022/12/29 09:55:06;;;;;;;37.03;25.58;;;;;;;;;;10314350;28;20064;-62
2022/12/29 10:00:14;;;;;;;42.42;29.50;;;;;;;;;;10314442;28;20060;-61
2022/12/29 10:05:20;;;;;;;56.78;33.65;;;;;;;;;;10313677;28;20072;-60
2022/12/29 10:10:27;;;;;;;31.90;24.13;;;;;;;;;;10314406;28;20544;-61
2022/12/29 10:15:32;;;;;;;51.35;31.80;;;;;;;;;;10312678;28;20072;-61
2022/12/29 10:20:34;;;;;;;19.92;14.43;;;;;;;;;;10313166;28;20337;-60
2022/12/29 10:25:35;;;;;;;29.15;20.65;;;;;;;;;;10314050;28;20048;-60
2022/12/29 10:30:35;;;;;;;25.77;20.15;;;;;;;;;;10313135;28;20045;-61
2022/12/29 10:35:35;;;;;;;22.45;16.98;;;;;;;;;;10309488;28;20104;-60
2022/12/29 10:40:37;;;;;;;25.52;18.92;;;;;;;;;;10306084;28;20522;-60
2022/12/29 10:45:37;;;;;;;31.75;27.40;;;;;;;;;;10300842;28;20068;-61
2022/12/29 10:50:35;;;;;;;30.92;22.50;;;;;;;;;;10283819;28;20083;-61
2022/12/29 10:55:34;;;;;;;28.80;22.20;;;;;;;;;;10287353;28;20075;-61
2022/12/29 11:00:33;;;;;;;19.40;15.18;;;;;;;;;;10298302;28;20072;-60
2022/12/29 11:05:36;;;;;;;15.07;13.10;;;;;;;;;;10310805;28;20427;-60
2022/12/29 11:10:36;;;;;;;22.83;15.80;;;;;;;;;;10310679;28;20068;-61
2022/12/29 11:15:39;;;;;;;23.27;17.45;;;;;;;;;;10310195;28;20068;-61
2022/12/29 11:20:42;;;;;;;28.27;21.30;;;;;;;;;;10309460;28;20083;-62
2022/12/29 11:25:41;;;;;;;25.75;17.00;;;;;;;;;;10309200;28;20068;-61
2022/12/29 11:30:40;;;;;;;20.25;16.25;;;;;;;;;;10299057;28;20406;-60
2022/12/29 11:35:41;;;;;;;43.75;31.30;;;;;;;;;;10280529;28;20072;-61
2022/12/29 11:40:40;;;;;;;34.80;22.58;;;;;;;;;;10287391;28;20466;-60
2022/12/29 11:45:45;;;;;;;27.45;18.25;;;;;;;;;;10296589;28;21176;-62
2022/12/29 11:50:52;;;;;;;55.20;39.42;;;;;;;;;;10311801;28;20494;-61
2022/12/29 11:55:54;;;;;;;32.05;23.15;;;;;;;;;;10276503;28;20068;-61
2022/12/29 12:00:53;;;;;;;36.00;27.00;;;;;;;;;;10279559;28;20076;-61
2022/12/29 12:05:55;;;;;;;34.83;25.05;;;;;;;;;;10292721;28;20068;-61
2022/12/29 12:10:56;;;;;;;36.75;27.08;;;;;;;;;;10296381;28;20075;-62
2022/12/29 12:15:58;;;;;;;35.78;27.92;;;;;;;;;;10296806;28;20041;-62
2022/12/29 12:21:05;;;;;;;41.10;24.73;;;;;;;;;;10297408;28;20056;-61
2022/12/29 12:26:05;;;;;;;47.80;30.65;;;;;;;;;;10309537;28;20045;-62
2022/12/29 12:31:06;;;;;;;44.25;27.35;;;;;;;;;;10291940;28;20045;-61
2022/12/29 12:36:15;;;;;;;35.15;23.95;;;;;;;;;;10309017;28;20127;-60
2022/12/29 12:41:16;;;;;;;32.35;22.10;;;;;;;;;;10317130;28;20043;-60
2022/12/29 12:46:20;;;;;;;56.55;37.00;;;;;;;;;;10316345;28;20068;-61
2022/12/29 12:51:25;;;;;;;25.27;20.13;;;;;;;;;;10314426;28;20489;-62
2022/12/29 12:56:29;;;;;;;40.93;29.20;;;;;;;;;;10314007;28;20072;-62
2022/12/29 13:01:36;;;;;;;39.17;23.17;;;;;;;;;;10315796;28;20076;-60
2022/12/29 13:06:43;;;;;;;71.70;47.70;;;;;;;;;;10315530;28;20438;-61
2022/12/29 13:11:47;;;;;;;60.53;37.80;;;;;;;;;;10313188;28;20071;-61
2022/12/29 13:16:49;;;;;;;34.80;23.20;;;;;;;;;;10313616;28;20064;-61
2022/12/29 13:21:55;;;;;;;41.63;24.27;;;;;;;;;;10316476;28;20036;-61
2022/12/29 13:27:02;;;;;;;28.95;21.05;;;;;;;;;;10316565;28;20075;-61
2022/12/29 13:32:07;;;;;;;20.48;16.60;;;;;;;;;;10315423;28;20541;-61
2022/12/29 13:37:10;;;;;;;30.40;21.43;;;;;;;;;;10286152;28;20047;-60
2022/12/29 13:42:09;;;;;;;35.55;23.10;;;;;;;;;;10315557;28;20045;-61
2022/12/29 13:47:16;;;;;;;54.78;42.58;;;;;;;;;;10315448;28;20052;-60
2022/12/29 13:52:20;;;;;;;48.92;36.45;;;;;;;;;;10315837;28;20106;-61
2022/12/29 13:57:22;;;;;;;21.25;17.75;;;;;;;;;;10314908;28;20086;-60
2022/12/29 14:02:28;;;;;;;33.03;22.25;;;;;;;;;;10315645;28;20045;-63
2022/12/29 14:07:28;;;;;;;36.58;23.60;;;;;;;;;;10315541;28;20087;-62
2022/12/29 14:12:31;;;;;;;29.20;22.77;;;;;;;;;;10320980;28;20498;-62
2022/12/29 14:17:29;;;;;;;33.90;25.40;;;;;;;;;;10322898;28;20069;-62
2022/12/29 14:22:29;;;;;;;34.55;29.35;;;;;;;;;;10304893;28;20044;-60
2022/12/29 14:27:53;;;;;;;56.10;38.40;;;;;;;;;;10323036;28;20049;-60
2022/12/29 14:33:12;;;;;;;98.10;59.17;;;;;;;;;;10320828;28;20095;-61
2022/12/29 14:38:19;;;;;;;85.50;48.30;;;;;;;;;;10312766;28;20088;-60
2022/12/29 14:43:23;;;;;;;87.10;56.97;;;;;;;;;;10311333;28;20487;-61
2022/12/29 14:48:36;;;;;;;45.05;31.92;;;;;;;;;;10300639;28;20072;-61
2022/12/29 14:53:44;;;;;;;42.60;31.33;;;;;;;;;;10295251;28;20462;-60
2022/12/29 14:58:47;;;;;;;95.25;56.70;;;;;;;;;;10299922;28;20079;-60
2022/12/29 15:03:46;;;;;;;110.78;65.80;;;;;;;;;;10306085;28;20064;-60
2022/12/29 15:08:48;;;;;;;79.50;46.92;;;;;;;;;;10317299;28;20063;-60
2022/12/29 15:13:48;;;;;;;81.00;48.42;;;;;;;;;;10287884;28;20065;-60
2022/12/29 15:18:46;;;;;;;84.55;58.63;;;;;;;;;;10277217;28;20068;-60
2022/12/29 15:23:46;;;;;;;68.10;42.20;;;;;;;;;;10274452;28;20538;-60
2022/12/29 15:28:45;;;;;;;68.93;42.10;;;;;;;;;;10276782;28;20522;-63
2022/12/29 15:33:44;;;;;;;152.32;103.68;;;;;;;;;;10275318;28;20073;-61
2022/12/29 15:38:44;;;;;;;68.68;44.22;;;;;;;;;;10276080;28;20068;-61
2022/12/29 15:43:50;;;;;;;27.38;21.63;;;;;;;;;;10277880;28;20470;-60
2022/12/29 15:48:49;;;;;;;87.40;46.20;;;;;;;;;;10287999;28;20068;-61
2022/12/29 15:53:48;;;;;;;108.47;68.32;;;;;;;;;;10287172;28;20060;-61
2022/12/29 15:58:50;;;;;;;92.38;61.65;;;;;;;;;;10288541;28;20045;-61
2022/12/29 16:03:48;;;;;;;49.85;35.00;;;;;;;;;;10314439;28;20064;-61
2022/12/29 16:08:56;;;;;;;59.33;43.75;;;;;;;;;;10315543;28;20036;-61
2022/12/29 16:13:56;;;;;;;108.32;75.10;;;;;;;;;;10318559;28;20052;-61
2022/12/29 16:18:55;;;;;;;48.03;37.00;;;;;;;;;;10311705;28;20078;-61
2022/12/29 16:23:56;;;;;;;90.40;63.00;;;;;;;;;;10316551;28;20434;-60
2022/12/29 16:28:57;;;;;;;186.40;117.50;;;;;;;;;;10317316;28;20063;-60
2022/12/29 16:33:56;;;;;;;76.10;55.25;;;;;;;;;;10308691;28;20044;-59
2022/12/29 16:39:12;;;;;;;50.38;36.80;;;;;;;;;;10312307;28;20068;-60
2022/12/29 16:44:10;;;;;;;;;;;;;;;;;;10317326;28;20087;-59
2022/12/29 16:49:15;;;;;;;47.90;36.47;;;;;;;;;;10316263;28;19929;-60
2022/12/29 16:54:21;;;;;;;67.50;46.28;;;;;;;;;;10315515;28;20040;-57
2022/12/29 16:59:31;;;;;;;72.43;50.33;;;;;;;;;;10315870;28;20413;-57
2022/12/29 17:04:31;;;;;;;29.35;22.98;;;;;;;;;;10315827;28;20068;-56
2022/12/29 17:09:30;;;;;;;32.42;23.20;;;;;;;;;;10313136;28;20056;-58
2022/12/29 17:14:41;;;;;;;27.25;19.98;;;;;;;;;;10313772;28;20075;-57
2022/12/29 17:19:43;;;;;;;28.48;21.60;;;;;;;;;;10308752;28;20067;-58
2022/12/29 17:24:41;;;;;;;31.02;22.92;;;;;;;;;;10314168;28;20072;-59
2022/12/29 17:29:41;;;;;;;23.38;19.50;;;;;;;;;;10314368;28;20075;-59
2022/12/29 17:34:41;;;;;;;52.58;30.67;;;;;;;;;;10311276;28;20068;-58
2022/12/29 17:39:39;;;;;;;83.47;45.25;;;;;;;;;;10315845;28;20079;-59
2022/12/29 17:44:37;;;;;;;43.33;31.02;;;;;;;;;;10306058;28;20060;-55
2022/12/29 17:49:36;;;;;;;46.15;28.17;;;;;;;;;;10303086;28;20064;-59
2022/12/29 17:54:35;;;;;;;86.90;55.60;;;;;;;;;;10309087;28;20084;-55
2022/12/29 17:59:34;;;;;;;67.57;44.80;;;;;;;;;;10303469;28;20060;-54
2022/12/29 18:04:32;;;;;;;64.90;39.13;;;;;;;;;;10313288;28;20681;-57
2022/12/29 18:09:30;;;;;;;79.07;48.45;;;;;;;;;;10314714;28;20455;-57
2022/12/29 18:14:29;;;;;;;204.00;104.85;;;;;;;;;;10311799;28;21122;-58
2022/12/29 18:19:28;;;;;;;93.80;61.47;;;;;;;;;;10312820;28;20083;-58
2022/12/29 18:24:32;;;;;;;64.25;47.47;;;;;;;;;;10314205;28;20072;-59
2022/12/29 18:29:34;;;;;;;31.90;26.35;;;;;;;;;;10305352;28;20494;-59
2022/12/29 18:34:32;;;;;;;33.33;25.15;;;;;;;;;;10308858;28;20076;-57
2022/12/29 18:39:30;;;;;;;30.02;22.23;;;;;;;;;;10310613;28;20083;-58
2022/12/29 18:44:29;;;;;;;32.55;26.17;;;;;;;;;;10313078;28;20075;-59
2022/12/29 18:49:28;;;;;;;21.13;18.92;;;;;;;;;;10295385;28;20044;-60
2022/12/29 18:54:28;;;;;;;56.33;43.67;;;;;;;;;;10310170;28;20064;-59
2022/12/29 18:59:26;;;;;;;26.38;22.13;;;;;;;;;;10311294;28;20076;-59
2022/12/29 19:04:25;;;;;;;71.25;38.03;;;;;;;;;;10317824;28;20068;-59
2022/12/29 19:09:25;;;;;;;99.90;57.80;;;;;;;;;;10308403;28;20683;-59
2022/12/29 19:14:23;;;;;;;63.28;37.00;;;;;;;;;;10317737;28;20076;-56
2022/12/29 19:19:21;;;;;;;46.10;27.75;;;;;;;;;;10317876;28;20079;-59
2022/12/29 19:24:20;;;;;;;38.15;29.60;;;;;;;;;;10288125;28;20075;-57
2022/12/29 19:29:19;;;;;;;26.40;21.67;;;;;;;;;;10304795;28;20075;-59
2022/12/29 19:34:17;;;;;;;38.05;31.67;;;;;;;;;;10317778;28;20072;-59
2022/12/29 19:39:16;;;;;;;36.13;29.80;;;;;;;;;;10293393;28;20072;-58
2022/12/29 19:44:16;;;;;;;42.00;33.05;;;;;;;;;;10315159;28;20502;-58
2022/12/29 19:49:15;;;;;;;39.20;32.03;;;;;;;;;;10317184;28;20067;-58
2022/12/29 19:54:13;;;;;;;31.05;22.85;;;;;;;;;;10316175;28;20079;-56
2022/12/29 19:59:12;;;;;;;92.82;53.05;;;;;;;;;;10309030;28;20506;-58
2022/12/29 20:04:10;;;;;;;168.93;85.35;;;;;;;;;;10291927;28;20128;-59
2022/12/29 20:09:09;;;;;;;199.98;101.03;;;;;;;;;;10290958;28;20080;-59
2022/12/29 20:14:08;;;;;;;31.02;23.65;;;;;;;;;;10299695;28;20493;-58
2022/12/29 20:19:06;;;;;;;33.30;24.42;;;;;;;;;;10285626;28;20498;-59
2022/12/29 20:24:04;;;;;;;28.20;21.50;;;;;;;;;;10302424;28;20067;-59
2022/12/29 20:29:04;;;;;;;21.20;17.48;;;;;;;;;;10315764;28;20514;-60
2022/12/29 20:34:03;;;;;;;22.23;18.90;;;;;;;;;;10315570;28;20079;-59
2022/12/29 20:39:02;;;;;;;18.45;16.45;;;;;;;;;;10315460;28;20056;-60
2022/12/29 20:44:00;;;;;;;21.42;17.63;;;;;;;;;;10309000;28;20162;-59
2022/12/29 20:49:00;;;;;;;29.38;21.35;;;;;;;;;;10316402;28;20056;-59
2022/12/29 20:53:58;;;;;;;39.45;26.70;;;;;;;;;;10297353;28;20075;-59
2022/12/29 20:58:56;;;;;;;23.83;18.67;;;;;;;;;;10315238;28;20064;-59
2022/12/29 21:04:16;;;;;;;23.95;17.40;;;;;;;;;;10315973;28;20057;-59
2022/12/29 21:09:14;;;;;;;20.13;15.35;;;;;;;;;;10313543;28;20064;-62
2022/12/29 21:14:12;;;;;;;26.35;18.92;;;;;;;;;;10302858;28;20067;-60
2022/12/29 21:19:12;;;;;;;22.23;16.52;;;;;;;;;;10311721;28;20083;-60
2022/12/29 21:24:11;;;;;;;34.92;26.67;;;;;;;;;;10315284;28;20044;-60
2022/12/29 21:29:09;;;;;;;26.35;21.48;;;;;;;;;;10304069;28;20075;-61
2022/12/29 21:34:09;;;;;;;24.75;20.20;;;;;;;;;;10309037;28;20075;-60
2022/12/29 21:39:07;;;;;;;18.75;14.40;;;;;;;;;;10312433;28;20075;-60
2022/12/29 21:49:25;;;;;;;15.52;12.68;;;;;;;;;;10311413;28;20060;-59
2022/12/29 22:15:31;;;;;;;17.40;14.38;;;;;;;;;;10313702;28;20044;-58
2022/12/29 22:20:31;;;;;;;42.78;16.42;;;;;;;;;;10310341;28;20068;-59
2022/12/29 22:25:29;;;;;;;18.50;13.77;;;;;;;;;;10314778;28;20048;-59
2022/12/29 22:30:28;;;;;;;18.48;15.05;;;;;;;;;;10314422;28;20714;-59
2022/12/29 22:35:27;;;;;;;21.92;15.65;;;;;;;;;;10313274;28;20064;-59
2022/12/29 22:40:25;;;;;;;17.73;14.82;;;;;;;;;;10314821;28;20067;-58
2022/12/29 22:45:24;;;;;;;22.60;14.52;;;;;;;;;;10316797;28;20066;-59
2022/12/29 22:50:22;;;;;;;20.65;15.68;;;;;;;;;;10316210;28;20485;-59
2022/12/29 22:55:21;;;;;;;23.90;17.67;;;;;;;;;;10316635;28;20068;-59
2022/12/29 23:00:20;;;;;;;18.20;14.88;;;;;;;;;;10317941;28;20064;-59
2022/12/29 23:05:18;;;;;;;17.48;13.85;;;;;;;;;;10320369;28;20044;-59
2022/12/29 23:10:16;;;;;;;20.80;13.10;;;;;;;;;;10321219;28;20339;-59
2022/12/29 23:15:16;;;;;;;15.95;13.40;;;;;;;;;;10320213;28;20571;-59
2022/12/29 23:20:14;;;;;;;16.08;12.27;;;;;;;;;;10320642;28;20068;-59
2022/12/29 23:25:12;;;;;;;22.17;16.73;;;;;;;;;;10320541;28;20041;-59
2022/12/29 23:30:11;;;;;;;12.95;10.77;;;;;;;;;;10320703;28;20044;-59
2022/12/29 23:35:10;;;;;;;13.77;11.30;;;;;;;;;;10320430;28;20052;-59
2022/12/29 23:40:09;;;;;;;15.05;10.98;;;;;;;;;;10316056;28;20076;-59
2022/12/29 23:45:08;;;;;;;13.27;11.73;;;;;;;;;;10314934;28;20072;-61
2022/12/29 23:50:07;;;;;;;12.48;10.18;;;;;;;;;;10307507;28;20529;-59
2022/12/29 23:55:08;;;;;;;12.07;10.07;;;;;;;;;;10310634;28;20064;-59
